sensor_id;sensor_type;location;lat;lon;timestamp;pressure;altitude;pressure_sealevel;temperature;humidity
74045;BME280;62389;51.412;5.436;2023-06-10T00:01:39;101258.38;;;21.78;61.27
74045;BME280;62389;51.412;5.436;2023-06-10T00:04:04;101253.31;;;21.75;61.55
74045;BME280;62389;51.412;5.436;2023-06-10T00:06:30;101253.56;;;21.71;62.20
74045;BME280;62389;51.412;5.436;2023-06-10T00:09:02;101259.28;;;21.67;61.74
74045;BME280;62389;51.412;5.436;2023-06-10T00:11:29;101265.25;;;21.59;60.83
74045;BME280;62389;51.412;5.436;2023-06-10T00:13:55;101269.13;;;21.55;61.04
74045;BME280;62389;51.412;5.436;2023-06-10T00:16:20;101259.72;;;21.51;61.28
74045;BME280;62389;51.412;5.436;2023-06-10T00:18:45;101266.03;;;21.50;61.74
74045;BME280;62389;51.412;5.436;2023-06-10T00:21:12;101262.63;;;21.48;61.43
74045;BME280;62389;51.412;5.436;2023-06-10T00:23:38;101258.41;;;21.45;62.44
74045;BME280;62389;51.412;5.436;2023-06-10T00:26:03;101259.78;;;21.40;61.16
74045;BME280;62389;51.412;5.436;2023-06-10T00:28:29;101266.16;;;21.37;63.86
74045;BME280;62389;51.412;5.436;2023-06-10T00:30:55;101266.44;;;21.34;61.91
74045;BME280;62389;51.412;5.436;2023-06-10T00:33:21;101269.44;;;21.30;63.24
74045;BME280;62389;51.412;5.436;2023-06-10T00:35:46;101269.97;;;21.24;62.34
74045;BME280;62389;51.412;5.436;2023-06-10T00:38:13;101262.91;;;21.23;63.77
74045;BME280;62389;51.412;5.436;2023-06-10T00:40:40;101268.50;;;21.19;63.06
74045;BME280;62389;51.412;5.436;2023-06-10T00:43:08;101262.59;;;21.16;62.77
74045;BME280;62389;51.412;5.436;2023-06-10T00:45:34;101262.72;;;21.14;63.90
74045;BME280;62389;51.412;5.436;2023-06-10T00:48:00;101272.88;;;21.09;63.69
74045;BME280;62389;51.412;5.436;2023-06-10T00:50:26;101270.44;;;21.17;61.54
74045;BME280;62389;51.412;5.436;2023-06-10T00:52:51;101273.00;;;21.08;63.86
74045;BME280;62389;51.412;5.436;2023-06-10T00:55:18;101266.13;;;21.05;64.63
74045;BME280;62389;51.412;5.436;2023-06-10T00:57:45;101263.00;;;21.00;65.09
74045;BME280;62389;51.412;5.436;2023-06-10T01:00:11;101264.91;;;20.98;62.72
74045;BME280;62389;51.412;5.436;2023-06-10T01:02:37;101261.69;;;20.94;64.74
74045;BME280;62389;51.412;5.436;2023-06-10T01:05:03;101265.41;;;20.92;66.55
74045;BME280;62389;51.412;5.436;2023-06-10T01:07:36;101270.25;;;20.87;64.68
74045;BME280;62389;51.412;5.436;2023-06-10T01:10:15;101263.13;;;20.87;63.53
74045;BME280;62389;51.412;5.436;2023-06-10T01:12:46;101263.38;;;20.84;64.06
74045;BME280;62389;51.412;5.436;2023-06-10T01:15:16;101268.94;;;20.81;64.60
74045;BME280;62389;51.412;5.436;2023-06-10T01:18:02;101261.09;;;20.80;63.16
74045;BME280;62389;51.412;5.436;2023-06-10T01:20:28;101266.63;;;20.77;64.51
74045;BME280;62389;51.412;5.436;2023-06-10T01:22:55;101272.22;;;20.74;63.04
74045;BME280;62389;51.412;5.436;2023-06-10T01:25:21;101266.16;;;20.72;61.99
74045;BME280;62389;51.412;5.436;2023-06-10T01:28:17;101264.84;;;20.66;63.00
74045;BME280;62389;51.412;5.436;2023-06-10T01:33:22;101261.69;;;20.61;63.64
74045;BME280;62389;51.412;5.436;2023-06-10T01:35:50;101267.00;;;20.61;63.04
74045;BME280;62389;51.412;5.436;2023-06-10T01:38:17;101259.41;;;20.56;63.46
74045;BME280;62389;51.412;5.436;2023-06-10T01:40:45;101270.53;;;20.50;64.95
74045;BME280;62389;51.412;5.436;2023-06-10T01:43:11;101264.91;;;20.42;64.91
74045;BME280;62389;51.412;5.436;2023-06-10T01:45:37;101267.00;;;20.38;64.15
74045;BME280;62389;51.412;5.436;2023-06-10T01:48:02;101265.41;;;20.36;62.91
74045;BME280;62389;51.412;5.436;2023-06-10T01:50:27;101275.31;;;20.34;64.20
74045;BME280;62389;51.412;5.436;2023-06-10T01:52:53;101271.91;;;20.32;62.82
74045;BME280;62389;51.412;5.436;2023-06-10T01:55:18;101258.16;;;20.27;63.71
74045;BME280;62389;51.412;5.436;2023-06-10T01:57:43;101268.91;;;20.25;62.92
74045;BME280;62389;51.412;5.436;2023-06-10T02:00:09;101271.78;;;20.22;63.16
74045;BME280;62389;51.412;5.436;2023-06-10T02:02:35;101272.63;;;20.23;61.82
74045;BME280;62389;51.412;5.436;2023-06-10T02:05:00;101269.47;;;20.17;61.27
74045;BME280;62389;51.412;5.436;2023-06-10T02:07:26;101272.41;;;20.14;63.02
74045;BME280;62389;51.412;5.436;2023-06-10T02:09:52;101275.06;;;20.14;62.78
74045;BME280;62389;51.412;5.436;2023-06-10T02:12:17;101271.66;;;20.12;62.47
74045;BME280;62389;51.412;5.436;2023-06-10T02:14:42;101269.13;;;20.11;62.17
74045;BME280;62389;51.412;5.436;2023-06-10T02:17:08;101276.38;;;20.09;61.11
74045;BME280;62389;51.412;5.436;2023-06-10T02:19:38;101273.72;;;20.09;62.02
74045;BME280;62389;51.412;5.436;2023-06-10T02:22:07;101275.53;;;20.08;61.97
74045;BME280;62389;51.412;5.436;2023-06-10T02:24:32;101277.44;;;20.06;62.82
74045;BME280;62389;51.412;5.436;2023-06-10T02:26:58;101284.69;;;20.04;64.01
74045;BME280;62389;51.412;5.436;2023-06-10T02:29:25;101281.53;;;19.99;62.92
74045;BME280;62389;51.412;5.436;2023-06-10T02:31:51;101289.72;;;19.96;62.66
74045;BME280;62389;51.412;5.436;2023-06-10T02:34:18;101280.06;;;19.95;61.78
74045;BME280;62389;51.412;5.436;2023-06-10T02:36:43;101278.38;;;19.94;60.94
74045;BME280;62389;51.412;5.436;2023-06-10T02:39:09;101282.72;;;19.95;62.13
74045;BME280;62389;51.412;5.436;2023-06-10T02:41:34;101284.53;;;19.95;61.07
74045;BME280;62389;51.412;5.436;2023-06-10T02:44:00;101278.47;;;19.92;61.11
74045;BME280;62389;51.412;5.436;2023-06-10T02:46:26;101284.88;;;19.90;61.08
74045;BME280;62389;51.412;5.436;2023-06-10T02:48:54;101276.16;;;19.88;61.17
74045;BME280;62389;51.412;5.436;2023-06-10T02:51:19;101281.84;;;19.83;61.68
74045;BME280;62389;51.412;5.436;2023-06-10T02:53:46;101278.56;;;19.80;61.48
74045;BME280;62389;51.412;5.436;2023-06-10T02:56:11;101287.59;;;19.77;63.34
74045;BME280;62389;51.412;5.436;2023-06-10T02:58:37;101285.19;;;19.74;61.96
74045;BME280;62389;51.412;5.436;2023-06-10T03:01:03;101284.44;;;19.72;62.61
74045;BME280;62389;51.412;5.436;2023-06-10T03:03:28;101287.44;;;19.67;62.00
74045;BME280;62389;51.412;5.436;2023-06-10T03:05:55;101280.44;;;19.66;62.87
74045;BME280;62389;51.412;5.436;2023-06-10T03:08:21;101287.81;;;19.63;62.11
74045;BME280;62389;51.412;5.436;2023-06-10T03:10:47;101284.53;;;19.59;62.22
74045;BME280;62389;51.412;5.436;2023-06-10T03:13:12;101288.13;;;19.58;62.30
74045;BME280;62389;51.412;5.436;2023-06-10T03:15:39;101289.31;;;19.54;63.09
74045;BME280;62389;51.412;5.436;2023-06-10T03:18:06;101291.22;;;19.52;63.22
74045;BME280;62389;51.412;5.436;2023-06-10T03:20:31;101281.69;;;19.50;62.53
74045;BME280;62389;51.412;5.436;2023-06-10T03:23:02;101287.22;;;19.47;63.03
74045;BME280;62389;51.412;5.436;2023-06-10T03:25:27;101289.25;;;19.43;63.87
74045;BME280;62389;51.412;5.436;2023-06-10T03:27:54;101292.00;;;19.41;62.67
74045;BME280;62389;51.412;5.436;2023-06-10T03:30:19;101291.16;;;19.41;63.74
74045;BME280;62389;51.412;5.436;2023-06-10T03:32:44;101297.56;;;19.38;64.07
74045;BME280;62389;51.412;5.436;2023-06-10T03:35:10;101302.22;;;19.35;65.00
74045;BME280;62389;51.412;5.436;2023-06-10T03:37:35;101304.38;;;19.30;65.08
74045;BME280;62389;51.412;5.436;2023-06-10T03:40:01;101297.59;;;19.26;63.61
74045;BME280;62389;51.412;5.436;2023-06-10T03:42:26;101307.56;;;19.22;65.54
74045;BME280;62389;51.412;5.436;2023-06-10T03:44:51;101300.69;;;19.20;64.72
74045;BME280;62389;51.412;5.436;2023-06-10T03:47:17;101312.25;;;19.19;65.45
74045;BME280;62389;51.412;5.436;2023-06-10T03:49:43;101303.56;;;19.17;65.61
74045;BME280;62389;51.412;5.436;2023-06-10T03:52:08;101310.78;;;19.14;66.26
74045;BME280;62389;51.412;5.436;2023-06-10T03:54:34;101315.34;;;19.12;65.85
74045;BME280;62389;51.412;5.436;2023-06-10T03:57:00;101307.94;;;19.05;67.67
74045;BME280;62389;51.412;5.436;2023-06-10T03:59:26;101311.06;;;18.99;68.22
74045;BME280;62389;51.412;5.436;2023-06-10T04:01:51;101311.38;;;18.94;67.19
74045;BME280;62389;51.412;5.436;2023-06-10T04:04:16;101319.31;;;18.94;66.78
74045;BME280;62389;51.412;5.436;2023-06-10T04:06:42;101317.63;;;18.93;66.08
74045;BME280;62389;51.412;5.436;2023-06-10T04:09:09;101324.75;;;18.93;67.74
74045;BME280;62389;51.412;5.436;2023-06-10T04:11:35;101321.34;;;18.91;67.60
74045;BME280;62389;51.412;5.436;2023-06-10T04:14:01;101315.31;;;18.88;68.60
74045;BME280;62389;51.412;5.436;2023-06-10T04:16:27;101315.19;;;18.90;66.72
74045;BME280;62389;51.412;5.436;2023-06-10T04:18:52;101306.28;;;18.91;66.88
74045;BME280;62389;51.412;5.436;2023-06-10T04:21:17;101324.84;;;18.91;67.50
74045;BME280;62389;51.412;5.436;2023-06-10T04:23:43;101323.16;;;18.90;68.02
74045;BME280;62389;51.412;5.436;2023-06-10T04:26:08;101329.28;;;18.91;67.40
74045;BME280;62389;51.412;5.436;2023-06-10T04:28:33;101322.19;;;18.91;67.02
74045;BME280;62389;51.412;5.436;2023-06-10T04:30:59;101325.78;;;18.90;67.43
74045;BME280;62389;51.412;5.436;2023-06-10T04:33:24;101330.13;;;18.91;69.18
74045;BME280;62389;51.412;5.436;2023-06-10T04:35:50;101332.78;;;18.91;66.63
74045;BME280;62389;51.412;5.436;2023-06-10T04:38:15;101335.56;;;18.89;70.30
74045;BME280;62389;51.412;5.436;2023-06-10T04:40:41;101332.06;;;18.89;69.62
74045;BME280;62389;51.412;5.436;2023-06-10T04:43:06;101339.16;;;18.88;69.94
74045;BME280;62389;51.412;5.436;2023-06-10T04:45:31;101336.50;;;18.88;69.64
74045;BME280;62389;51.412;5.436;2023-06-10T04:47:57;101333.75;;;18.90;68.23
74045;BME280;62389;51.412;5.436;2023-06-10T04:50:23;101334.38;;;18.94;68.12
74045;BME280;62389;51.412;5.436;2023-06-10T04:52:48;101336.91;;;18.95;67.43
74045;BME280;62389;51.412;5.436;2023-06-10T04:55:15;101334.25;;;18.95;68.51
74045;BME280;62389;51.412;5.436;2023-06-10T04:57:40;101341.06;;;18.99;68.67
74045;BME280;62389;51.412;5.436;2023-06-10T05:00:06;101339.03;;;19.03;69.43
74045;BME280;62389;51.412;5.436;2023-06-10T05:02:32;101338.91;;;19.04;69.28
74045;BME280;62389;51.412;5.436;2023-06-10T05:04:57;101342.28;;;19.06;70.59
74045;BME280;62389;51.412;5.436;2023-06-10T05:07:23;101344.22;;;19.04;70.94
74045;BME280;62389;51.412;5.436;2023-06-10T05:09:49;101336.28;;;19.04;71.12
74045;BME280;62389;51.412;5.436;2023-06-10T05:12:14;101335.44;;;19.04;69.85
74045;BME280;62389;51.412;5.436;2023-06-10T05:14:39;101335.44;;;19.04;70.38
74045;BME280;62389;51.412;5.436;2023-06-10T05:17:05;101334.34;;;19.06;69.57
74045;BME280;62389;51.412;5.436;2023-06-10T05:19:31;101341.34;;;19.07;71.32
74045;BME280;62389;51.412;5.436;2023-06-10T05:21:57;101341.34;;;19.07;71.40
74045;BME280;62389;51.412;5.436;2023-06-10T05:24:22;101356.19;;;19.10;71.28
74045;BME280;62389;51.412;5.436;2023-06-10T05:26:48;101341.25;;;19.09;72.72
74045;BME280;62389;51.412;5.436;2023-06-10T05:29:14;101336.91;;;19.08;72.42
74045;BME280;62389;51.412;5.436;2023-06-10T05:31:40;101339.44;;;19.09;73.31
74045;BME280;62389;51.412;5.436;2023-06-10T05:34:06;101344.63;;;19.11;72.07
74045;BME280;62389;51.412;5.436;2023-06-10T05:36:31;101331.25;;;19.12;72.57
74045;BME280;62389;51.412;5.436;2023-06-10T05:38:57;101339.00;;;19.15;70.84
74045;BME280;62389;51.412;5.436;2023-06-10T05:41:23;101334.41;;;19.18;71.24
74045;BME280;62389;51.412;5.436;2023-06-10T05:43:48;101337.81;;;19.20;71.71
74045;BME280;62389;51.412;5.436;2023-06-10T05:46:14;101340.22;;;19.23;72.56
74045;BME280;62389;51.412;5.436;2023-06-10T05:48:39;101333.88;;;19.25;71.51
74045;BME280;62389;51.412;5.436;2023-06-10T05:51:04;101342.56;;;19.27;69.22
74045;BME280;62389;51.412;5.436;2023-06-10T05:53:30;101343.19;;;19.31;70.33
74045;BME280;62389;51.412;5.436;2023-06-10T05:55:55;101349.13;;;19.34;70.32
74045;BME280;62389;51.412;5.436;2023-06-10T05:58:23;101348.03;;;19.37;70.65
74045;BME280;62389;51.412;5.436;2023-06-10T06:00:48;101345.91;;;19.42;69.69
74045;BME280;62389;51.412;5.436;2023-06-10T06:03:14;101347.38;;;19.46;67.49
74045;BME280;62389;51.412;5.436;2023-06-10T06:05:39;101348.00;;;19.50;67.68
74045;BME280;62389;51.412;5.436;2023-06-10T06:08:05;101351.06;;;19.56;68.38
74045;BME280;62389;51.412;5.436;2023-06-10T06:10:31;101349.91;;;19.60;67.72
74045;BME280;62389;51.412;5.436;2023-06-10T06:12:56;101342.47;;;19.65;67.22
74045;BME280;62389;51.412;5.436;2023-06-10T06:15:22;101348.38;;;19.69;67.05
74045;BME280;62389;51.412;5.436;2023-06-10T06:17:47;101348.06;;;19.74;67.74
74045;BME280;62389;51.412;5.436;2023-06-10T06:20:13;101342.63;;;19.75;67.13
74045;BME280;62389;51.412;5.436;2023-06-10T06:22:38;101341.53;;;19.78;68.50
74045;BME280;62389;51.412;5.436;2023-06-10T06:25:04;101348.31;;;19.82;66.88
74045;BME280;62389;51.412;5.436;2023-06-10T06:27:30;101351.38;;;19.88;67.01
74045;BME280;62389;51.412;5.436;2023-06-10T06:29:56;101353.91;;;19.90;68.15
74045;BME280;62389;51.412;5.436;2023-06-10T06:32:21;101349.31;;;19.92;68.22
74045;BME280;62389;51.412;5.436;2023-06-10T06:34:47;101350.66;;;19.98;66.53
74045;BME280;62389;51.412;5.436;2023-06-10T06:37:14;101357.56;;;20.00;66.70
74045;BME280;62389;51.412;5.436;2023-06-10T06:39:40;101361.69;;;20.04;67.93
74045;BME280;62389;51.412;5.436;2023-06-10T06:42:05;101356.13;;;20.07;68.69
74045;BME280;62389;51.412;5.436;2023-06-10T06:44:31;101361.22;;;20.10;67.74
74045;BME280;62389;51.412;5.436;2023-06-10T06:46:56;101360.88;;;20.15;67.28
74045;BME280;62389;51.412;5.436;2023-06-10T06:49:21;101355.22;;;20.20;67.05
74045;BME280;62389;51.412;5.436;2023-06-10T06:51:47;101362.94;;;20.23;65.64
74045;BME280;62389;51.412;5.436;2023-06-10T06:54:12;101355.47;;;20.28;65.44
74045;BME280;62389;51.412;5.436;2023-06-10T06:56:37;101361.41;;;20.31;64.48
74045;BME280;62389;51.412;5.436;2023-06-10T06:59:03;101362.84;;;20.35;65.43
74045;BME280;62389;51.412;5.436;2023-06-10T07:01:29;101361.53;;;20.41;64.39
74045;BME280;62389;51.412;5.436;2023-06-10T07:03:55;101362.25;;;20.43;65.13
74045;BME280;62389;51.412;5.436;2023-06-10T07:06:20;101362.03;;;20.46;64.53
74045;BME280;62389;51.412;5.436;2023-06-10T07:08:46;101366.06;;;20.52;64.17
74045;BME280;62389;51.412;5.436;2023-06-10T07:11:11;101374.66;;;20.55;65.22
74045;BME280;62389;51.412;5.436;2023-06-10T07:13:36;101369.09;;;20.58;64.58
74045;BME280;62389;51.412;5.436;2023-06-10T07:16:02;101378.50;;;20.62;65.31
74045;BME280;62389;51.412;5.436;2023-06-10T07:18:27;101376.34;;;20.67;65.90
74045;BME280;62389;51.412;5.436;2023-06-10T07:20:53;101378.56;;;20.74;65.28
74045;BME280;62389;51.412;5.436;2023-06-10T07:23:18;101379.75;;;20.81;65.05
74045;BME280;62389;51.412;5.436;2023-06-10T07:25:43;101383.38;;;20.91;65.29
74045;BME280;62389;51.412;5.436;2023-06-10T07:28:09;101379.03;;;21.01;64.04
74045;BME280;62389;51.412;5.436;2023-06-10T07:30:34;101382.03;;;21.08;63.64
74045;BME280;62389;51.412;5.436;2023-06-10T07:32:59;101383.34;;;21.13;63.52
74045;BME280;62389;51.412;5.436;2023-06-10T07:35:25;101381.31;;;21.17;63.36
74045;BME280;62389;51.412;5.436;2023-06-10T07:37:51;101382.75;;;21.21;63.15
74045;BME280;62389;51.412;5.436;2023-06-10T07:40:16;101383.59;;;21.21;62.20
74045;BME280;62389;51.412;5.436;2023-06-10T07:42:42;101385.19;;;21.24;63.52
74045;BME280;62389;51.412;5.436;2023-06-10T07:45:08;101384.09;;;21.27;62.16
74045;BME280;62389;51.412;5.436;2023-06-10T07:47:34;101390.03;;;21.30;62.62
74045;BME280;62389;51.412;5.436;2023-06-10T07:49:59;101378.28;;;21.33;65.60
74045;BME280;62389;51.412;5.436;2023-06-10T07:52:25;101391.38;;;21.36;64.59
74045;BME280;62389;51.412;5.436;2023-06-10T07:54:51;101376.84;;;21.40;64.71
74045;BME280;62389;51.412;5.436;2023-06-10T07:57:16;101379.97;;;21.45;65.19
74045;BME280;62389;51.412;5.436;2023-06-10T07:59:42;101383.22;;;21.49;66.21
74045;BME280;62389;51.412;5.436;2023-06-10T08:02:09;101382.00;;;21.53;64.72
74045;BME280;62389;51.412;5.436;2023-06-10T08:04:34;101389.88;;;21.54;60.63
74045;BME280;62389;51.412;5.436;2023-06-10T08:07:00;101385.97;;;21.58;59.88
74045;BME280;62389;51.412;5.436;2023-06-10T08:09:25;101378.47;;;21.63;62.08
74045;BME280;62389;51.412;5.436;2023-06-10T08:11:51;101391.16;;;21.71;62.51
74045;BME280;62389;51.412;5.436;2023-06-10T08:14:16;101387.16;;;21.77;60.44
74045;BME280;62389;51.412;5.436;2023-06-10T08:16:43;101377.81;;;21.82;61.91
74045;BME280;62389;51.412;5.436;2023-06-10T08:19:08;101376.34;;;21.89;61.99
74045;BME280;62389;51.412;5.436;2023-06-10T08:21:35;101381.63;;;22.01;60.72
74045;BME280;62389;51.412;5.436;2023-06-10T08:24:02;101378.94;;;22.12;60.62
74045;BME280;62389;51.412;5.436;2023-06-10T08:26:27;101381.81;;;22.20;59.69
74045;BME280;62389;51.412;5.436;2023-06-10T08:28:52;101381.16;;;22.28;59.83
74045;BME280;62389;51.412;5.436;2023-06-10T08:31:19;101382.06;;;22.38;58.92
74045;BME280;62389;51.412;5.436;2023-06-10T08:33:45;101383.94;;;22.47;57.83
74045;BME280;62389;51.412;5.436;2023-06-10T08:36:10;101375.31;;;22.55;57.77
74045;BME280;62389;51.412;5.436;2023-06-10T08:38:35;101377.56;;;22.59;57.02
74045;BME280;62389;51.412;5.436;2023-06-10T08:41:01;101376.91;;;22.67;57.30
74045;BME280;62389;51.412;5.436;2023-06-10T08:43:44;101379.75;;;22.75;57.28
74045;BME280;62389;51.412;5.436;2023-06-10T08:46:11;101376.56;;;22.81;57.52
74045;BME280;62389;51.412;5.436;2023-06-10T08:48:42;101381.25;;;22.89;55.80
74045;BME280;62389;51.412;5.436;2023-06-10T08:51:10;101378.75;;;22.97;53.79
74045;BME280;62389;51.412;5.436;2023-06-10T08:53:37;101381.63;;;23.05;57.92
74045;BME280;62389;51.412;5.436;2023-06-10T08:56:05;101376.16;;;23.16;55.27
74045;BME280;62389;51.412;5.436;2023-06-10T08:58:32;101374.53;;;23.25;55.73
74045;BME280;62389;51.412;5.436;2023-06-10T09:01:07;101379.44;;;23.39;53.04
74045;BME280;62389;51.412;5.436;2023-06-10T09:03:33;101375.53;;;23.53;53.19
74045;BME280;62389;51.412;5.436;2023-06-10T09:06:00;101377.88;;;23.77;51.08
74045;BME280;62389;51.412;5.436;2023-06-10T09:08:27;101378.28;;;24.40;49.27
74045;BME280;62389;51.412;5.436;2023-06-10T09:10:53;101372.06;;;25.24;48.49
74045;BME280;62389;51.412;5.436;2023-06-10T09:13:18;101369.34;;;25.97;47.50
74045;BME280;62389;51.412;5.436;2023-06-10T09:15:44;101368.28;;;26.33;47.48
74045;BME280;62389;51.412;5.436;2023-06-10T09:18:10;101372.47;;;26.54;50.41
74045;BME280;62389;51.412;5.436;2023-06-10T09:20:38;101365.44;;;27.96;41.89
74045;BME280;62389;51.412;5.436;2023-06-10T09:23:04;101367.81;;;29.35;41.58
74045;BME280;62389;51.412;5.436;2023-06-10T09:25:36;101376.03;;;30.71;40.16
74045;BME280;62389;51.412;5.436;2023-06-10T09:28:02;101373.53;;;31.71;34.54
74045;BME280;62389;51.412;5.436;2023-06-10T09:30:30;101366.94;;;32.52;33.96
74045;BME280;62389;51.412;5.436;2023-06-10T09:32:57;101368.31;;;33.04;33.14
74045;BME280;62389;51.412;5.436;2023-06-10T09:35:24;101367.19;;;33.39;32.10
74045;BME280;62389;51.412;5.436;2023-06-10T09:37:52;101367.88;;;33.55;30.45
74045;BME280;62389;51.412;5.436;2023-06-10T09:40:18;101363.06;;;33.50;31.16
74045;BME280;62389;51.412;5.436;2023-06-10T09:42:43;101367.50;;;33.10;32.66
74045;BME280;62389;51.412;5.436;2023-06-10T09:45:08;101367.50;;;32.40;32.32
74045;BME280;62389;51.412;5.436;2023-06-10T09:47:34;101370.78;;;31.86;32.53
74045;BME280;62389;51.412;5.436;2023-06-10T09:49:59;101366.13;;;31.59;32.39
74045;BME280;62389;51.412;5.436;2023-06-10T09:52:26;101367.78;;;31.24;34.71
74045;BME280;62389;51.412;5.436;2023-06-10T09:54:53;101362.25;;;30.81;35.16
74045;BME280;62389;51.412;5.436;2023-06-10T09:57:21;101360.06;;;30.47;36.17
74045;BME280;62389;51.412;5.436;2023-06-10T09:59:47;101359.13;;;30.25;36.42
74045;BME280;62389;51.412;5.436;2023-06-10T10:02:16;101357.97;;;29.96;35.86
74045;BME280;62389;51.412;5.436;2023-06-10T10:04:43;101353.13;;;29.91;38.01
74045;BME280;62389;51.412;5.436;2023-06-10T10:07:10;101357.59;;;29.84;41.68
74045;BME280;62389;51.412;5.436;2023-06-10T10:09:37;101354.00;;;29.69;39.65
74045;BME280;62389;51.412;5.436;2023-06-10T10:12:14;101347.56;;;29.47;36.74
74045;BME280;62389;51.412;5.436;2023-06-10T10:14:45;101343.91;;;29.32;39.38
74045;BME280;62389;51.412;5.436;2023-06-10T10:17:14;101343.44;;;29.28;37.13
74045;BME280;62389;51.412;5.436;2023-06-10T10:19:53;101344.63;;;29.57;38.77
74045;BME280;62389;51.412;5.436;2023-06-10T10:22:26;101349.53;;;29.76;37.98
74045;BME280;62389;51.412;5.436;2023-06-10T10:24:59;101347.19;;;29.50;38.00
74045;BME280;62389;51.412;5.436;2023-06-10T10:27:28;101350.19;;;29.24;38.38
74045;BME280;62389;51.412;5.436;2023-06-10T10:29:54;101341.00;;;29.10;40.00
74045;BME280;62389;51.412;5.436;2023-06-10T10:32:31;101348.78;;;29.05;37.78
74045;BME280;62389;51.412;5.436;2023-06-10T10:37:32;101344.28;;;28.81;41.23
74045;BME280;62389;51.412;5.436;2023-06-10T10:39:58;101336.97;;;28.67;38.57
74045;BME280;62389;51.412;5.436;2023-06-10T10:42:24;101337.63;;;28.61;41.03
74045;BME280;62389;51.412;5.436;2023-06-10T10:44:50;101341.03;;;28.55;38.60
74045;BME280;62389;51.412;5.436;2023-06-10T10:47:16;101334.31;;;28.51;40.98
74045;BME280;62389;51.412;5.436;2023-06-10T10:49:48;101334.16;;;28.44;39.58
74045;BME280;62389;51.412;5.436;2023-06-10T10:52:16;101335.50;;;28.40;38.74
74045;BME280;62389;51.412;5.436;2023-06-10T10:54:46;101340.38;;;28.36;38.41
74045;BME280;62389;51.412;5.436;2023-06-10T10:59:52;101331.66;;;28.34;40.34
74045;BME280;62389;51.412;5.436;2023-06-10T11:04:58;101337.34;;;28.31;40.77
74045;BME280;62389;51.412;5.436;2023-06-10T11:07:30;101312.13;;;28.32;41.29
74045;BME280;62389;51.412;5.436;2023-06-10T11:12:50;101332.50;;;28.27;40.40
74045;BME280;62389;51.412;5.436;2023-06-10T11:15:23;101317.53;;;28.24;38.97
74045;BME280;62389;51.412;5.436;2023-06-10T11:18:09;101316.19;;;28.28;39.96
74045;BME280;62389;51.412;5.436;2023-06-10T11:21:05;101312.47;;;28.29;39.88
74045;BME280;62389;51.412;5.436;2023-06-10T11:31:24;101313.13;;;28.48;39.24
74045;BME280;62389;51.412;5.436;2023-06-10T11:33:55;101305.06;;;28.48;38.89
74045;BME280;62389;51.412;5.436;2023-06-10T11:36:21;101304.56;;;28.44;37.80
74045;BME280;62389;51.412;5.436;2023-06-10T11:38:46;101299.69;;;28.48;38.79
74045;BME280;62389;51.412;5.436;2023-06-10T11:41:14;101306.03;;;28.55;42.37
74045;BME280;62389;51.412;5.436;2023-06-10T11:43:46;101301.81;;;28.60;41.26
74045;BME280;62389;51.412;5.436;2023-06-10T11:46:12;101295.06;;;28.64;38.42
74045;BME280;62389;51.412;5.436;2023-06-10T11:48:38;101302.81;;;28.68;39.31
74045;BME280;62389;51.412;5.436;2023-06-10T11:51:07;101301.81;;;28.60;39.71
74045;BME280;62389;51.412;5.436;2023-06-10T11:53:33;101295.97;;;28.57;39.87
74045;BME280;62389;51.412;5.436;2023-06-10T11:55:58;101298.28;;;28.60;38.21
74045;BME280;62389;51.412;5.436;2023-06-10T11:58:24;101294.44;;;28.62;38.74
74045;BME280;62389;51.412;5.436;2023-06-10T12:00:52;101299.28;;;28.67;38.28
74045;BME280;62389;51.412;5.436;2023-06-10T12:03:23;101296.91;;;28.72;38.75
74045;BME280;62389;51.412;5.436;2023-06-10T12:06:05;101281.72;;;28.79;35.02
74045;BME280;62389;51.412;5.436;2023-06-10T12:08:32;101278.16;;;28.87;38.93
74045;BME280;62389;51.412;5.436;2023-06-10T12:10:58;101287.94;;;28.80;39.58
74045;BME280;62389;51.412;5.436;2023-06-10T12:13:26;101289.69;;;28.73;38.44
74045;BME280;62389;51.412;5.436;2023-06-10T12:15:52;101284.09;;;28.74;39.44
74045;BME280;62389;51.412;5.436;2023-06-10T12:18:19;101280.72;;;28.80;37.15
74045;BME280;62389;51.412;5.436;2023-06-10T12:20:45;101278.31;;;28.85;37.22
74045;BME280;62389;51.412;5.436;2023-06-10T12:23:11;101272.41;;;28.98;38.31
74045;BME280;62389;51.412;5.436;2023-06-10T12:25:37;101278.41;;;29.08;37.98
74045;BME280;62389;51.412;5.436;2023-06-10T12:28:03;101278.84;;;29.20;41.32
74045;BME280;62389;51.412;5.436;2023-06-10T12:30:29;101277.47;;;29.24;37.65
74045;BME280;62389;51.412;5.436;2023-06-10T12:32:55;101282.59;;;29.11;36.75
74045;BME280;62389;51.412;5.436;2023-06-10T12:35:22;101273.22;;;29.07;36.19
74045;BME280;62389;51.412;5.436;2023-06-10T12:38:01;101281.41;;;29.13;35.86
74045;BME280;62389;51.412;5.436;2023-06-10T12:40:32;101272.81;;;29.18;40.00
74045;BME280;62389;51.412;5.436;2023-06-10T12:42:59;101280.50;;;29.21;38.34
74045;BME280;62389;51.412;5.436;2023-06-10T12:48:08;101274.06;;;29.30;38.06
74045;BME280;62389;51.412;5.436;2023-06-10T12:50:35;101269.16;;;29.34;35.16
74045;BME280;62389;51.412;5.436;2023-06-10T12:53:02;101276.47;;;29.48;35.78
74045;BME280;62389;51.412;5.436;2023-06-10T12:55:28;101281.25;;;29.61;32.15
74045;BME280;62389;51.412;5.436;2023-06-10T12:57:54;101276.34;;;29.87;29.46
74045;BME280;62389;51.412;5.436;2023-06-10T13:00:20;101277.25;;;29.95;31.61
74045;BME280;62389;51.412;5.436;2023-06-10T13:02:45;101273.53;;;29.96;36.10
74045;BME280;62389;51.412;5.436;2023-06-10T13:05:11;101275.13;;;30.05;35.19
74045;BME280;62389;51.412;5.436;2023-06-10T13:07:36;101273.81;;;30.38;31.64
74045;BME280;62389;51.412;5.436;2023-06-10T13:10:02;101272.75;;;31.20;29.63
74045;BME280;62389;51.412;5.436;2023-06-10T13:12:28;101261.50;;;32.09;28.39